Time;durP1;ratioP1;P1;durP2;ratioP2;P2;SDS_P1;SDS_P2;PMS_P1;PMS_P2;Temp;Humidity;BMP_temperature;BMP_pressure;BME280_temperature;BME280_humidity;BME280_pressure;Samples;Min_cycle;Max_cycle;Signal;HPM_P1;HPM_P2
2021/03/15 00:00:58;;;;;;;9.13;6.53;;;;;;;;;;2080876;28;20618;-57
2021/03/15 00:01:58;;;;;;;7.07;6.37;;;;;;;;;;2072024;28;20181;-57
2021/03/15 00:02:59;;;;;;;7.63;6.20;;;;;;;;;;2089248;28;20198;-57
2021/03/15 00:03:59;;;;;;;9.97;5.80;;;;;;;;;;2088695;28;20254;-56
2021/03/15 00:04:59;;;;;;;9.80;5.83;;;;;;;;;;2088911;28;20255;-59
2021/03/15 00:05:59;;;;;;;10.53;6.20;;;;;;;;;;2088197;28;20190;-56
2021/03/15 00:07:00;;;;;;;8.47;6.47;;;;;;;;;;2089044;28;20636;-55
2021/03/15 00:08:00;;;;;;;10.23;6.47;;;;;;;;;;2087445;28;20199;-57
2021/03/15 00:09:00;;;;;;;9.57;6.77;;;;;;;;;;2089605;28;20233;-54
2021/03/15 00:10:01;;;;;;;8.37;7.20;;;;;;;;;;2088521;28;20532;-54
2021/03/15 00:11:01;;;;;;;9.43;7.37;;;;;;;;;;2089239;28;20251;-53
2021/03/15 00:12:01;;;;;;;12.13;7.57;;;;;;;;;;2089125;28;20606;-56
2021/03/15 00:13:02;;;;;;;13.77;8.23;;;;;;;;;;2089602;28;20179;-57
2021/03/15 00:14:02;;;;;;;11.80;7.90;;;;;;;;;;2079854;28;20250;-55
2021/03/15 00:15:03;;;;;;;14.03;6.70;;;;;;;;;;2078598;28;20552;-54
2021/03/15 00:16:04;;;;;;;9.87;7.07;;;;;;;;;;2080542;28;20540;-59
2021/03/15 00:17:04;;;;;;;10.10;6.70;;;;;;;;;;2080527;28;20723;-56
2021/03/15 00:18:04;;;;;;;11.00;7.17;;;;;;;;;;2073371;28;20177;-56
2021/03/15 00:19:04;;;;;;;10.73;6.00;;;;;;;;;;2072668;28;20219;-53
2021/03/15 00:20:06;;;;;;;9.10;6.37;;;;;;;;;;2080314;28;20196;-54
2021/03/15 00:21:06;;;;;;;11.97;6.43;;;;;;;;;;2090175;28;20178;-58
2021/03/15 00:22:06;;;;;;;10.13;7.17;;;;;;;;;;2081256;28;20734;-59
2021/03/15 00:23:07;;;;;;;10.87;6.13;;;;;;;;;;2081997;28;20184;-58
2021/03/15 00:24:07;;;;;;;14.97;7.27;;;;;;;;;;2089720;28;20179;-57
2021/03/15 00:25:08;;;;;;;6.83;5.93;;;;;;;;;;2090003;28;20179;-58
2021/03/15 00:26:08;;;;;;;8.37;6.53;;;;;;;;;;2090155;28;20222;-61
2021/03/15 00:27:08;;;;;;;7.77;6.00;;;;;;;;;;2084066;28;20614;-58
2021/03/15 00:28:09;;;;;;;6.50;5.40;;;;;;;;;;2083130;28;20192;-60
2021/03/15 00:29:09;;;;;;;8.50;5.70;;;;;;;;;;2090031;28;20176;-58
2021/03/15 00:30:11;;;;;;;9.07;6.53;;;;;;;;;;2090735;28;20187;-59
2021/03/15 00:31:11;;;;;;;5.93;5.43;;;;;;;;;;2091705;28;20182;-59
2021/03/15 00:32:11;;;;;;;7.33;5.50;;;;;;;;;;2091204;28;20175;-60
2021/03/15 00:33:12;;;;;;;6.70;6.10;;;;;;;;;;2091785;28;20188;-59
2021/03/15 00:34:12;;;;;;;6.77;6.07;;;;;;;;;;2092424;28;20898;-58
2021/03/15 00:35:13;;;;;;;7.97;5.50;;;;;;;;;;2091586;28;20210;-57
2021/03/15 00:36:13;;;;;;;7.17;5.00;;;;;;;;;;2090498;28;20656;-56
2021/03/15 00:37:13;;;;;;;6.67;5.67;;;;;;;;;;2084150;28;20184;-56
2021/03/15 00:38:14;;;;;;;5.47;5.00;;;;;;;;;;2089354;28;20203;-56
2021/03/15 00:39:14;;;;;;;6.63;4.50;;;;;;;;;;2088800;28;20172;-56
2021/03/15 00:40:16;;;;;;;5.57;5.07;;;;;;;;;;2088988;28;20716;-56
2021/03/15 00:41:16;;;;;;;7.53;5.47;;;;;;;;;;2087572;28;20207;-54
2021/03/15 00:42:17;;;;;;;5.63;5.10;;;;;;;;;;2071881;28;20649;-57
2021/03/15 00:43:17;;;;;;;9.03;5.50;;;;;;;;;;2072394;28;21015;-56
2021/03/15 00:44:18;;;;;;;4.80;4.30;;;;;;;;;;2089398;28;20710;-52
2021/03/15 00:45:19;;;;;;;5.53;4.63;;;;;;;;;;2088085;28;20179;-58
2021/03/15 00:46:20;;;;;;;4.67;4.27;;;;;;;;;;2080282;28;20177;-59
2021/03/15 00:47:20;;;;;;;4.70;4.27;;;;;;;;;;2079845;28;20645;-57
2021/03/15 00:48:20;;;;;;;6.57;4.20;;;;;;;;;;2084272;28;20289;-57
2021/03/15 00:49:21;;;;;;;5.47;4.90;;;;;;;;;;2088132;28;20164;-57
2021/03/15 00:50:24;;;;;;;4.77;4.37;;;;;;;;;;2075490;28;20193;-55
2021/03/15 00:51:25;;;;;;;5.97;4.63;;;;;;;;;;2080025;28;20560;-56
2021/03/15 00:52:25;;;;;;;5.77;4.30;;;;;;;;;;2080470;28;20235;-57
2021/03/15 00:53:25;;;;;;;4.57;4.17;;;;;;;;;;2080315;28;20214;-56
2021/03/15 00:54:26;;;;;;;4.60;4.20;;;;;;;;;;2079712;28;20247;-56
2021/03/15 00:55:28;;;;;;;6.20;4.53;;;;;;;;;;2088437;28;20164;-53
2021/03/15 00:56:28;;;;;;;5.20;4.70;;;;;;;;;;2080483;28;20267;-57
2021/03/15 00:57:28;;;;;;;4.73;4.33;;;;;;;;;;2072187;28;20526;-55
2021/03/15 00:58:29;;;;;;;5.20;4.70;;;;;;;;;;2072158;28;20573;-54
2021/03/15 00:59:29;;;;;;;5.20;4.80;;;;;;;;;;2072327;28;20177;-56
2021/03/15 01:00:33;;;;;;;5.33;4.17;;;;;;;;;;2071242;28;20216;-57
2021/03/15 01:01:46;;;;;;;7.07;4.13;;;;;;;;;;2068264;28;20185;-54
2021/03/15 01:02:46;;;;;;;4.53;4.13;;;;;;;;;;2087129;28;20184;-55
2021/03/15 01:03:47;;;;;;;4.27;3.97;;;;;;;;;;2097102;28;20193;-59
2021/03/15 01:04:47;;;;;;;4.20;3.90;;;;;;;;;;2091013;28;20540;-55
2021/03/15 01:05:53;;;;;;;4.50;4.00;;;;;;;;;;2073170;28;20184;-53
2021/03/15 01:07:19;;;;;;;6.17;4.10;;;;;;;;;;2051523;28;20709;-56
2021/03/15 01:08:20;;;;;;;6.13;4.27;;;;;;;;;;2081854;28;20211;-53
2021/03/15 01:09:21;;;;;;;3.63;3.43;;;;;;;;;;2065076;28;20166;-58
2021/03/15 01:10:28;;;;;;;4.10;3.63;;;;;;;;;;2070883;28;20196;-55
2021/03/15 01:11:29;;;;;;;4.73;4.33;;;;;;;;;;2077251;28;20176;-53
2021/03/15 01:12:34;;;;;;;3.93;3.63;;;;;;;;;;2082576;28;20629;-56
2021/03/15 01:13:36;;;;;;;4.70;4.03;;;;;;;;;;2090644;28;20225;-56
2021/03/15 01:14:36;;;;;;;4.90;3.97;;;;;;;;;;2081486;28;20549;-56
2021/03/15 01:15:41;;;;;;;4.97;3.67;;;;;;;;;;2081856;28;20140;-56
2021/03/15 01:16:42;;;;;;;4.43;4.03;;;;;;;;;;2080558;28;20869;-57
2021/03/15 01:17:42;;;;;;;4.07;3.73;;;;;;;;;;2073344;28;20169;-55
2021/03/15 01:18:43;;;;;;;4.23;3.83;;;;;;;;;;2080947;28;20200;-58
2021/03/15 01:19:43;;;;;;;5.47;4.13;;;;;;;;;;2084536;28;20168;-55
2021/03/15 01:20:44;;;;;;;6.43;3.97;;;;;;;;;;2079845;28;20183;-58
2021/03/15 01:21:44;;;;;;;4.20;3.90;;;;;;;;;;2080784;28;20180;-59
2021/03/15 01:22:44;;;;;;;4.20;3.83;;;;;;;;;;2089293;28;20176;-58
2021/03/15 01:23:44;;;;;;;4.47;3.63;;;;;;;;;;2089365;28;20219;-58
2021/03/15 01:24:45;;;;;;;4.17;3.77;;;;;;;;;;2089780;28;20191;-52
2021/03/15 01:25:45;;;;;;;5.93;3.83;;;;;;;;;;2089781;28;20225;-54
2021/03/15 01:26:45;;;;;;;5.27;4.10;;;;;;;;;;2089935;28;20257;-55
2021/03/15 01:27:46;;;;;;;3.67;3.43;;;;;;;;;;2090592;28;20658;-57
2021/03/15 01:28:46;;;;;;;5.63;4.00;;;;;;;;;;2081336;28;20275;-58
2021/03/15 01:29:46;;;;;;;5.17;3.90;;;;;;;;;;2081493;28;20195;-57
2021/03/15 01:30:47;;;;;;;5.87;4.10;;;;;;;;;;2089828;28;20190;-57
2021/03/15 01:31:47;;;;;;;4.33;3.80;;;;;;;;;;2079084;28;20199;-55
2021/03/15 01:32:47;;;;;;;4.67;4.30;;;;;;;;;;2081749;28;20246;-54
2021/03/15 01:33:48;;;;;;;3.50;3.20;;;;;;;;;;2089996;28;20167;-58
2021/03/15 01:34:48;;;;;;;3.77;3.47;;;;;;;;;;2090753;28;20188;-52
2021/03/15 01:35:49;;;;;;;3.30;3.00;;;;;;;;;;2081329;28;20180;-57
2021/03/15 01:36:49;;;;;;;3.50;3.20;;;;;;;;;;2081677;28;20168;-57
2021/03/15 01:37:49;;;;;;;4.13;3.30;;;;;;;;;;2090534;28;20285;-58
2021/03/15 01:38:50;;;;;;;8.40;4.03;;;;;;;;;;2081773;28;20214;-57
2021/03/15 01:39:50;;;;;;;4.43;3.73;;;;;;;;;;2081239;28;20303;-57
2021/03/15 01:40:50;;;;;;;3.90;3.60;;;;;;;;;;2090177;28;20183;-57
2021/03/15 01:41:51;;;;;;;4.43;3.63;;;;;;;;;;2081000;28;20649;-56
2021/03/15 01:42:51;;;;;;;4.47;4.07;;;;;;;;;;2082315;28;20206;-58
2021/03/15 01:43:51;;;;;;;4.10;3.80;;;;;;;;;;2083328;28;20172;-59
2021/03/15 01:44:51;;;;;;;4.03;3.77;;;;;;;;;;2081633;28;20188;-56
2021/03/15 01:45:52;;;;;;;4.93;4.07;;;;;;;;;;2080879;28;20182;-58
2021/03/15 01:46:52;;;;;;;5.60;4.20;;;;;;;;;;2080242;28;20172;-58
2021/03/15 01:47:53;;;;;;;3.90;3.60;;;;;;;;;;2081786;28;20286;-57
2021/03/15 01:48:53;;;;;;;4.40;3.50;;;;;;;;;;2089645;28;20172;-58
2021/03/15 01:49:53;;;;;;;4.10;3.70;;;;;;;;;;2090635;28;20200;-59
2021/03/15 01:50:54;;;;;;;4.53;4.03;;;;;;;;;;2086624;28;20263;-55
2021/03/15 01:51:54;;;;;;;4.77;4.37;;;;;;;;;;2080393;28;20203;-56
2021/03/15 01:52:55;;;;;;;4.63;3.80;;;;;;;;;;2080822;28;20185;-56
2021/03/15 01:53:56;;;;;;;6.87;4.10;;;;;;;;;;2088965;28;20203;-56
2021/03/15 01:54:56;;;;;;;4.87;4.30;;;;;;;;;;2089821;28;20598;-57
2021/03/15 01:55:56;;;;;;;4.53;4.07;;;;;;;;;;2075752;28;20181;-55
2021/03/15 01:56:57;;;;;;;6.53;4.33;;;;;;;;;;2081179;28;20183;-55
2021/03/15 01:57:57;;;;;;;4.57;4.17;;;;;;;;;;2089698;28;20791;-57
2021/03/15 01:58:58;;;;;;;5.53;4.53;;;;;;;;;;2089447;28;20175;-55
2021/03/15 01:59:59;;;;;;;4.20;3.90;;;;;;;;;;2090258;28;20179;-58
2021/03/15 02:00:59;;;;;;;4.73;3.97;;;;;;;;;;2087545;28;20214;-56
2021/03/15 02:01:59;;;;;;;6.33;3.97;;;;;;;;;;2089267;28;20184;-55
2021/03/15 02:03:01;;;;;;;5.17;4.27;;;;;;;;;;2089589;28;20171;-54
2021/03/15 02:04:04;;;;;;;4.23;3.83;;;;;;;;;;2089690;28;20183;-56
2021/03/15 02:05:05;;;;;;;6.13;4.67;;;;;;;;;;2090373;28;20168;-57
2021/03/15 02:06:09;;;;;;;5.03;4.53;;;;;;;;;;2080897;28;20592;-58
2021/03/15 02:07:10;;;;;;;5.03;4.50;;;;;;;;;;2080228;28;20169;-53
2021/03/15 02:08:11;;;;;;;5.13;4.73;;;;;;;;;;2090216;28;20671;-57
2021/03/15 02:09:12;;;;;;;4.60;4.20;;;;;;;;;;2080731;28;20179;-56
2021/03/15 02:10:12;;;;;;;6.07;4.40;;;;;;;;;;2081357;28;20188;-56
2021/03/15 02:11:27;;;;;;;5.57;5.10;;;;;;;;;;2080529;28;20172;-56
2021/03/15 02:12:34;;;;;;;4.77;4.33;;;;;;;;;;2080780;28;20160;-58
2021/03/15 02:13:57;;;;;;;5.00;4.50;;;;;;;;;;2086733;28;20206;-57
2021/03/15 02:15:05;;;;;;;7.33;4.77;;;;;;;;;;2080060;28;20575;-55
2021/03/15 02:16:05;;;;;;;5.73;4.83;;;;;;;;;;2079302;28;20168;-53
2021/03/15 02:17:18;;;;;;;5.03;4.57;;;;;;;;;;2088969;28;20230;-59
2021/03/15 02:18:37;;;;;;;4.93;4.43;;;;;;;;;;2080980;28;20187;-57
2021/03/15 02:19:51;;;;;;;5.53;5.00;;;;;;;;;;2083689;28;20715;-57
2021/03/15 02:21:07;;;;;;;5.87;4.70;;;;;;;;;;2080991;28;20669;-62
2021/03/15 02:22:15;;;;;;;6.13;5.10;;;;;;;;;;2081941;28;20191;-57
2021/03/15 02:23:23;;;;;;;6.43;4.67;;;;;;;;;;2084196;28;20211;-55
2021/03/15 02:24:42;;;;;;;6.17;5.27;;;;;;;;;;2088108;28;20187;-54
2021/03/15 02:25:51;;;;;;;6.13;5.40;;;;;;;;;;2087117;28;20179;-56
2021/03/15 02:27:10;;;;;;;6.63;5.33;;;;;;;;;;2083351;28;20222;-56
2021/03/15 02:28:30;;;;;;;5.90;5.33;;;;;;;;;;2083848;28;20202;-56
2021/03/15 02:29:30;;;;;;;5.70;5.20;;;;;;;;;;2089691;28;20167;-57
2021/03/15 02:30:42;;;;;;;6.77;5.97;;;;;;;;;;2089448;28;20218;-57
2021/03/15 02:32:01;;;;;;;7.27;6.07;;;;;;;;;;2084735;28;20226;-55
2021/03/15 02:33:16;;;;;;;7.00;5.73;;;;;;;;;;2083512;28;20853;-59
2021/03/15 02:34:26;;;;;;;7.70;6.37;;;;;;;;;;2091137;28;20176;-58
2021/03/15 02:35:32;;;;;;;6.63;6.03;;;;;;;;;;2087522;28;20160;-57
2021/03/15 02:36:35;;;;;;;6.90;6.20;;;;;;;;;;2089683;28;21750;-57
2021/03/15 02:37:36;;;;;;;7.73;6.27;;;;;;;;;;2090002;28;20180;-56
2021/03/15 02:38:38;;;;;;;9.93;6.93;;;;;;;;;;2090950;28;20193;-59
2021/03/15 02:39:40;;;;;;;7.93;6.90;;;;;;;;;;2089205;28;20195;-53
2021/03/15 02:40:47;;;;;;;7.03;6.43;;;;;;;;;;2081357;28;20685;-53
2021/03/15 02:41:49;;;;;;;10.80;6.63;;;;;;;;;;2072202;28;20548;-53
2021/03/15 02:42:51;;;;;;;8.00;6.60;;;;;;;;;;2081106;28;20185;-54
2021/03/15 02:43:54;;;;;;;8.57;5.77;;;;;;;;;;2087753;28;20214;-57
2021/03/15 02:44:54;;;;;;;8.27;7.07;;;;;;;;;;2089239;28;20203;-56
2021/03/15 02:46:05;;;;;;;8.23;7.43;;;;;;;;;;2089885;28;20183;-56
2021/03/15 02:47:11;;;;;;;9.23;7.40;;;;;;;;;;2089162;28;20689;-56
2021/03/15 02:48:12;;;;;;;8.40;7.53;;;;;;;;;;2074685;28;20208;-56
2021/03/15 02:49:14;;;;;;;8.03;6.80;;;;;;;;;;2080488;28;20199;-55
2021/03/15 02:50:14;;;;;;;7.87;7.17;;;;;;;;;;2088603;28;20531;-56
2021/03/15 02:51:16;;;;;;;8.70;6.83;;;;;;;;;;2087867;28;20262;-56
2021/03/15 02:52:18;;;;;;;8.43;6.40;;;;;;;;;;2086347;28;20200;-51
2021/03/15 02:53:18;;;;;;;7.70;6.70;;;;;;;;;;2084945;28;20187;-56
2021/03/15 02:54:19;;;;;;;8.07;7.27;;;;;;;;;;2085535;28;20214;-56
2021/03/15 02:55:25;;;;;;;7.87;7.07;;;;;;;;;;2085768;28;20179;-54
2021/03/15 02:56:26;;;;;;;7.70;6.70;;;;;;;;;;2084636;28;20179;-58
2021/03/15 02:57:28;;;;;;;8.63;6.70;;;;;;;;;;2086405;28;20535;-57
2021/03/15 02:58:29;;;;;;;7.77;6.97;;;;;;;;;;2085433;28;20234;-55
2021/03/15 02:59:30;;;;;;;7.57;6.80;;;;;;;;;;2086848;28;20226;-56
2021/03/15 03:01:38;;;;;;;12.50;7.00;;;;;;;;;;2073399;28;20239;-52
2021/03/15 03:02:41;;;;;;;9.03;7.33;;;;;;;;;;2080356;28;20187;-57
2021/03/15 03:03:41;;;;;;;8.30;7.40;;;;;;;;;;2072337;28;20177;-54
2021/03/15 03:04:47;;;;;;;10.43;8.07;;;;;;;;;;2072811;28;20181;-57
2021/03/15 03:05:51;;;;;;;8.27;6.77;;;;;;;;;;2080312;28;20195;-58
2021/03/15 03:06:52;;;;;;;8.60;7.70;;;;;;;;;;2081901;28;20271;-57
2021/03/15 03:07:54;;;;;;;7.73;6.93;;;;;;;;;;2081346;28;20556;-58
2021/03/15 03:08:55;;;;;;;7.80;7.00;;;;;;;;;;2081166;28;20214;-56
2021/03/15 03:09:56;;;;;;;8.00;7.17;;;;;;;;;;2082906;28;20195;-57
2021/03/15 03:10:57;;;;;;;8.97;7.13;;;;;;;;;;2076418;28;20565;-56
2021/03/15 03:11:57;;;;;;;8.70;7.50;;;;;;;;;;2081365;28;20172;-57
2021/03/15 03:12:58;;;;;;;10.63;9.47;;;;;;;;;;2080814;28;20666;-56
2021/03/15 03:13:59;;;;;;;9.60;8.00;;;;;;;;;;2074730;28;20196;-58
2021/03/15 03:15:01;;;;;;;10.97;8.10;;;;;;;;;;2087612;28;20656;-58
2021/03/15 03:16:01;;;;;;;12.90;7.60;;;;;;;;;;2089764;28;20195;-58
2021/03/15 03:17:03;;;;;;;9.23;7.50;;;;;;;;;;2076461;28;20175;-58
2021/03/15 03:18:03;;;;;;;8.40;7.60;;;;;;;;;;2090591;28;20183;-59
2021/03/15 03:19:07;;;;;;;13.27;7.93;;;;;;;;;;2090282;28;20207;-58
2021/03/15 03:20:17;;;;;;;8.73;7.80;;;;;;;;;;2090841;28;20195;-59
2021/03/15 03:21:21;;;;;;;8.63;7.47;;;;;;;;;;2084836;28;20687;-56
2021/03/15 03:22:23;;;;;;;11.40;8.20;;;;;;;;;;2089889;28;20171;-58
2021/03/15 03:23:28;;;;;;;8.63;7.73;;;;;;;;;;2078636;28;20184;-59
2021/03/15 03:24:30;;;;;;;10.57;7.77;;;;;;;;;;2080638;28;20178;-58
2021/03/15 03:25:31;;;;;;;8.63;7.67;;;;;;;;;;2087470;28;20652;-60
2021/03/15 03:26:31;;;;;;;9.47;8.07;;;;;;;;;;2086506;28;20253;-59
2021/03/15 03:27:32;;;;;;;8.93;7.60;;;;;;;;;;2092249;28;20197;-60
2021/03/15 03:28:33;;;;;;;9.63;7.10;;;;;;;;;;2075206;28;20660;-59
2021/03/15 03:29:34;;;;;;;9.37;7.27;;;;;;;;;;2077662;28;20222;-60
2021/03/15 03:30:38;;;;;;;8.07;7.27;;;;;;;;;;2090812;28;20262;-55
2021/03/15 03:31:40;;;;;;;8.50;7.70;;;;;;;;;;2088810;28;20462;-55
2021/03/15 03:32:41;;;;;;;11.23;7.57;;;;;;;;;;2088617;28;20215;-60
2021/03/15 03:33:42;;;;;;;9.53;7.27;;;;;;;;;;2089157;28;20225;-61
2021/03/15 03:34:42;;;;;;;10.50;8.37;;;;;;;;;;2080203;28;20189;-59
2021/03/15 03:35:43;;;;;;;8.33;7.53;;;;;;;;;;2079977;28;20229;-59
2021/03/15 03:36:43;;;;;;;8.67;7.77;;;;;;;;;;2087488;28;20259;-59
2021/03/15 03:37:43;;;;;;;8.53;7.73;;;;;;;;;;2084696;28;20188;-60
2021/03/15 03:38:43;;;;;;;8.83;7.37;;;;;;;;;;2089079;28;20171;-58
2021/03/15 03:39:44;;;;;;;11.73;7.70;;;;;;;;;;2087273;28;20179;-58
2021/03/15 03:40:44;;;;;;;8.87;6.90;;;;;;;;;;2089255;28;20270;-60
2021/03/15 03:41:44;;;;;;;9.33;6.97;;;;;;;;;;2087975;28;20172;-59
2021/03/15 03:42:45;;;;;;;9.10;7.27;;;;;;;;;;2079675;28;20188;-58
2021/03/15 03:43:45;;;;;;;8.03;7.10;;;;;;;;;;2079543;28;20176;-55
2021/03/15 03:44:46;;;;;;;9.17;7.37;;;;;;;;;;2086020;28;20253;-58
2021/03/15 03:45:46;;;;;;;10.00;7.27;;;;;;;;;;2079446;28;20168;-58
2021/03/15 03:46:46;;;;;;;8.87;7.27;;;;;;;;;;2079634;28;20223;-59
2021/03/15 03:47:46;;;;;;;9.37;7.23;;;;;;;;;;2088664;28;20524;-58
2021/03/15 03:48:47;;;;;;;8.70;7.80;;;;;;;;;;2088529;28;20592;-57
2021/03/15 03:49:47;;;;;;;8.60;6.67;;;;;;;;;;2077831;28;20565;-56
2021/03/15 03:50:47;;;;;;;8.63;7.30;;;;;;;;;;2070504;28;20300;-58
2021/03/15 03:51:50;;;;;;;9.50;8.50;;;;;;;;;;2079470;28;20180;-57
2021/03/15 03:53:29;;;;;;;10.93;8.47;;;;;;;;;;2088468;28;20602;-58
2021/03/15 03:54:33;;;;;;;11.83;8.57;;;;;;;;;;2056146;28;20194;-56
2021/03/15 03:55:37;;;;;;;13.07;9.60;;;;;;;;;;2050423;28;20302;-57
2021/03/15 03:56:42;;;;;;;12.43;9.77;;;;;;;;;;2056299;28;20199;-58
2021/03/15 03:57:43;;;;;;;11.90;9.83;;;;;;;;;;2052393;28;20256;-59
2021/03/15 03:58:46;;;;;;;15.33;10.90;;;;;;;;;;2045359;28;20748;-58
2021/03/15 03:59:48;;;;;;;13.50;10.10;;;;;;;;;;2059127;28;20197;-59
2021/03/15 04:00:53;;;;;;;12.97;9.97;;;;;;;;;;2087947;28;20381;-59
2021/03/15 04:01:56;;;;;;;13.37;10.17;;;;;;;;;;2088605;28;20168;-57
2021/03/15 04:03:00;;;;;;;16.43;11.00;;;;;;;;;;2084157;28;20196;-60
2021/03/15 04:04:01;;;;;;;15.63;11.63;;;;;;;;;;2089279;28;20546;-57
2021/03/15 04:05:03;;;;;;;12.40;10.10;;;;;;;;;;2089097;28;20187;-55
2021/03/15 04:06:05;;;;;;;14.33;11.17;;;;;;;;;;2088999;28;20225;-57
2021/03/15 04:07:06;;;;;;;16.90;11.97;;;;;;;;;;2087561;28;20195;-57
2021/03/15 04:08:08;;;;;;;14.40;10.30;;;;;;;;;;2089327;28;20210;-57
2021/03/15 04:09:13;;;;;;;15.67;10.57;;;;;;;;;;2079878;28;20199;-58
2021/03/15 04:10:14;;;;;;;15.77;11.07;;;;;;;;;;2074620;28;20176;-51
2021/03/15 04:11:14;;;;;;;17.20;11.73;;;;;;;;;;2079903;28;20219;-62
2021/03/15 04:12:16;;;;;;;20.53;12.73;;;;;;;;;;2072176;28;20172;-58
2021/03/15 04:13:22;;;;;;;16.03;12.23;;;;;;;;;;2065164;28;20180;-60
2021/03/15 04:14:25;;;;;;;18.33;12.70;;;;;;;;;;2074480;28;20165;-60
2021/03/15 04:15:26;;;;;;;18.43;11.93;;;;;;;;;;2081103;28;20199;-60
2021/03/15 04:16:29;;;;;;;17.60;12.40;;;;;;;;;;2077499;28;20180;-61
2021/03/15 04:17:33;;;;;;;18.87;12.90;;;;;;;;;;2072185;28;20184;-60
2021/03/15 04:18:36;;;;;;;18.00;12.07;;;;;;;;;;2078052;28;20235;-62
2021/03/15 04:19:39;;;;;;;16.40;12.27;;;;;;;;;;2080897;28;20622;-61
2021/03/15 04:20:41;;;;;;;18.60;13.00;;;;;;;;;;2068022;28;20193;-60
2021/03/15 04:21:42;;;;;;;19.47;12.07;;;;;;;;;;2078394;28;20183;-57
2021/03/15 04:22:54;;;;;;;20.00;12.97;;;;;;;;;;2090375;28;20632;-60
2021/03/15 04:23:56;;;;;;;18.93;12.83;;;;;;;;;;2088697;28;20190;-60
2021/03/15 04:24:58;;;;;;;20.17;12.50;;;;;;;;;;2071904;28;20181;-59
2021/03/15 04:25:59;;;;;;;17.03;12.40;;;;;;;;;;2073406;28;20192;-58
2021/03/15 04:27:00;;;;;;;17.50;12.23;;;;;;;;;;2080853;28;20271;-62
2021/03/15 04:28:00;;;;;;;17.07;11.93;;;;;;;;;;2080721;28;20259;-60
2021/03/15 04:29:02;;;;;;;19.07;13.13;;;;;;;;;;2080102;28;20195;-60
2021/03/15 04:30:02;;;;;;;14.33;11.87;;;;;;;;;;2080903;28;20178;-58
2021/03/15 04:31:04;;;;;;;14.57;11.53;;;;;;;;;;2087271;28;20195;-62
2021/03/15 04:32:05;;;;;;;21.87;13.60;;;;;;;;;;2089221;28;20206;-61
2021/03/15 04:33:06;;;;;;;15.43;12.30;;;;;;;;;;2072997;28;20169;-62
2021/03/15 04:34:07;;;;;;;20.47;13.20;;;;;;;;;;2072647;28;20680;-61
2021/03/15 04:35:07;;;;;;;18.60;13.20;;;;;;;;;;2090033;28;20251;-61
2021/03/15 04:36:08;;;;;;;19.27;13.20;;;;;;;;;;2088927;28;20682;-61
2021/03/15 04:37:09;;;;;;;17.23;12.47;;;;;;;;;;2089428;28;20667;-59
2021/03/15 04:38:10;;;;;;;20.80;13.07;;;;;;;;;;2089741;28;20246;-61
2021/03/15 04:39:11;;;;;;;18.17;13.47;;;;;;;;;;2091913;28;20175;-61
2021/03/15 04:40:13;;;;;;;22.67;12.90;;;;;;;;;;2091968;28;20168;-59
2021/03/15 04:41:15;;;;;;;19.10;12.60;;;;;;;;;;2091507;28;20207;-59
2021/03/15 04:42:16;;;;;;;17.57;12.47;;;;;;;;;;2094870;28;20278;-61
2021/03/15 04:43:17;;;;;;;19.00;13.37;;;;;;;;;;2092020;28;20171;-59
2021/03/15 04:44:17;;;;;;;17.57;12.80;;;;;;;;;;2091661;28;20624;-60
2021/03/15 04:45:18;;;;;;;17.30;11.87;;;;;;;;;;2091849;28;20215;-57
2021/03/15 04:46:19;;;;;;;14.87;11.63;;;;;;;;;;2092037;28;20232;-62
2021/03/15 04:47:19;;;;;;;16.53;11.57;;;;;;;;;;2088144;28;20184;-59
2021/03/15 04:48:21;;;;;;;15.83;11.60;;;;;;;;;;2091182;28;20195;-59
2021/03/15 04:49:23;;;;;;;16.23;12.30;;;;;;;;;;2081681;28;20299;-60
2021/03/15 04:50:24;;;;;;;16.77;11.57;;;;;;;;;;2082969;28;20195;-62
2021/03/15 04:51:26;;;;;;;14.17;11.37;;;;;;;;;;2090467;28;20687;-61
2021/03/15 04:52:27;;;;;;;15.30;12.70;;;;;;;;;;2073740;28;20183;-61
2021/03/15 04:53:28;;;;;;;15.00;11.53;;;;;;;;;;2057364;28;20185;-61
2021/03/15 04:54:28;;;;;;;15.00;11.87;;;;;;;;;;2074494;28;20569;-60
2021/03/15 04:55:29;;;;;;;18.77;13.37;;;;;;;;;;2086753;28;20184;-62
2021/03/15 04:56:29;;;;;;;15.53;12.60;;;;;;;;;;2089519;28;20705;-60
2021/03/15 04:57:31;;;;;;;14.30;11.77;;;;;;;;;;2090647;28;20206;-59
2021/03/15 04:58:33;;;;;;;13.67;11.57;;;;;;;;;;2082268;28;20191;-61
2021/03/15 04:59:34;;;;;;;15.37;12.10;;;;;;;;;;2082026;28;20190;-60
2021/03/15 05:00:35;;;;;;;16.20;11.90;;;;;;;;;;2088766;28;20180;-60
2021/03/15 05:01:39;;;;;;;16.63;12.43;;;;;;;;;;2080888;28;20347;-60
2021/03/15 05:02:42;;;;;;;15.10;11.97;;;;;;;;;;2068931;28;20177;-61
2021/03/15 05:03:43;;;;;;;19.90;13.10;;;;;;;;;;2072804;28;20271;-58
2021/03/15 05:04:44;;;;;;;14.23;11.67;;;;;;;;;;2083042;28;20191;-58
2021/03/15 05:05:45;;;;;;;15.70;12.20;;;;;;;;;;2090495;28;20180;-61
2021/03/15 05:06:47;;;;;;;13.57;11.77;;;;;;;;;;2091365;28;20180;-61
2021/03/15 05:07:48;;;;;;;17.17;12.47;;;;;;;;;;2081566;28;20195;-64
2021/03/15 05:08:49;;;;;;;14.07;12.00;;;;;;;;;;2081592;28;20191;-60
2021/03/15 05:09:50;;;;;;;14.23;12.10;;;;;;;;;;2080424;28;20198;-62
2021/03/15 05:10:52;;;;;;;16.70;11.53;;;;;;;;;;2081148;28;20175;-61
2021/03/15 05:11:54;;;;;;;15.10;12.00;;;;;;;;;;2089744;28;20175;-62
2021/03/15 05:12:54;;;;;;;14.70;11.90;;;;;;;;;;2089241;28;20203;-58
2021/03/15 05:13:54;;;;;;;17.57;11.83;;;;;;;;;;2090294;28;20175;-61
2021/03/15 05:14:55;;;;;;;18.60;12.60;;;;;;;;;;2089840;28;20356;-59
2021/03/15 05:15:57;;;;;;;14.47;11.17;;;;;;;;;;2082678;28;20588;-61
2021/03/15 05:16:57;;;;;;;16.63;12.03;;;;;;;;;;2073043;28;20188;-60
2021/03/15 05:17:58;;;;;;;15.23;11.83;;;;;;;;;;2082224;28;20194;-62
2021/03/15 05:18:58;;;;;;;13.77;11.73;;;;;;;;;;2077937;28;20184;-61
2021/03/15 05:20:00;;;;;;;14.93;11.43;;;;;;;;;;2091325;28;20180;-60
2021/03/15 05:21:01;;;;;;;17.90;12.23;;;;;;;;;;2090104;28;20292;-62
2021/03/15 05:22:02;;;;;;;14.63;11.13;;;;;;;;;;2090901;28;20175;-61
2021/03/15 05:23:03;;;;;;;14.67;11.43;;;;;;;;;;2089022;28;20182;-60
2021/03/15 05:24:04;;;;;;;13.30;11.53;;;;;;;;;;2081772;28;20176;-60
2021/03/15 05:25:06;;;;;;;11.20;9.93;;;;;;;;;;2081200;28;20811;-61
2021/03/15 05:26:06;;;;;;;12.40;10.17;;;;;;;;;;2084435;28;20196;-60
2021/03/15 05:27:08;;;;;;;12.80;10.53;;;;;;;;;;2089554;28;20176;-61
2021/03/15 05:28:10;;;;;;;16.20;10.73;;;;;;;;;;2082351;28;20849;-60
2021/03/15 05:29:15;;;;;;;15.47;11.47;;;;;;;;;;2072917;28;20176;-60
2021/03/15 05:30:16;;;;;;;12.87;11.23;;;;;;;;;;2082666;28;20227;-61
2021/03/15 05:31:18;;;;;;;12.17;10.10;;;;;;;;;;2090794;28;20179;-60
2021/03/15 05:32:19;;;;;;;11.83;10.30;;;;;;;;;;2090183;28;20183;-61
2021/03/15 05:33:21;;;;;;;16.33;11.07;;;;;;;;;;2081999;28;20176;-64
2021/03/15 05:34:22;;;;;;;14.33;10.87;;;;;;;;;;2081586;28;20260;-60
2021/03/15 05:35:23;;;;;;;14.47;11.00;;;;;;;;;;2090299;28;20180;-62
2021/03/15 05:36:24;;;;;;;13.37;10.33;;;;;;;;;;2090934;28;20317;-61
2021/03/15 05:37:26;;;;;;;12.20;10.87;;;;;;;;;;2089164;28;20544;-59
2021/03/15 05:38:26;;;;;;;13.03;10.60;;;;;;;;;;2088341;28;20222;-59
2021/03/15 05:39:27;;;;;;;11.73;10.23;;;;;;;;;;2081591;28;20206;-60
2021/03/15 05:40:28;;;;;;;15.20;9.70;;;;;;;;;;2076011;28;20745;-63
2021/03/15 05:41:39;;;;;;;12.83;10.37;;;;;;;;;;2081891;28;20188;-60
2021/03/15 05:42:58;;;;;;;15.13;10.93;;;;;;;;;;2078736;28;20204;-60
2021/03/15 05:44:10;;;;;;;13.87;10.90;;;;;;;;;;2077560;28;20188;-62
2021/03/15 05:45:14;;;;;;;12.87;11.00;;;;;;;;;;2084402;28;20665;-58
2021/03/15 05:46:33;;;;;;;13.73;10.17;;;;;;;;;;2090903;28;20539;-58
2021/03/15 05:47:42;;;;;;;12.40;10.13;;;;;;;;;;2073291;28;20627;-59
2021/03/15 05:48:58;;;;;;;14.77;9.97;;;;;;;;;;2072185;28;20216;-59
2021/03/15 05:50:16;;;;;;;12.63;10.30;;;;;;;;;;2077422;28;20228;-61
2021/03/15 05:51:29;;;;;;;12.90;10.67;;;;;;;;;;2084122;28;20199;-60
2021/03/15 05:52:48;;;;;;;14.93;10.13;;;;;;;;;;2074186;28;20168;-59
2021/03/15 05:53:54;;;;;;;14.00;10.73;;;;;;;;;;2077770;28;20246;-60
2021/03/15 05:55:06;;;;;;;11.47;9.30;;;;;;;;;;2074745;28;20168;-61
2021/03/15 05:56:10;;;;;;;11.60;9.40;;;;;;;;;;2075954;28;20169;-61
2021/03/15 05:57:22;;;;;;;14.53;9.97;;;;;;;;;;2090532;28;20245;-61
2021/03/15 05:58:22;;;;;;;13.63;9.77;;;;;;;;;;2085337;28;20208;-62
2021/03/15 05:59:46;;;;;;;14.77;9.70;;;;;;;;;;2091039;28;20183;-60
2021/03/15 06:01:05;;;;;;;13.50;9.13;;;;;;;;;;2069919;28;20196;-58
2021/03/15 06:02:11;;;;;;;12.47;9.30;;;;;;;;;;2076146;28;20172;-59
2021/03/15 06:03:30;;;;;;;11.00;9.43;;;;;;;;;;2084683;28;20210;-61
2021/03/15 06:04:55;;;;;;;11.73;9.37;;;;;;;;;;2087153;28;20172;-60
2021/03/15 06:05:56;;;;;;;13.70;9.37;;;;;;;;;;2081846;28;20203;-58
2021/03/15 06:06:57;;;;;;;10.97;8.73;;;;;;;;;;2081851;28;20179;-59
2021/03/15 06:08:01;;;;;;;14.10;9.87;;;;;;;;;;2086967;28;20172;-58
2021/03/15 06:09:02;;;;;;;15.63;9.60;;;;;;;;;;2089581;28;20238;-60
2021/03/15 06:10:04;;;;;;;11.83;9.57;;;;;;;;;;2073005;28;20173;-58
2021/03/15 06:11:04;;;;;;;12.43;9.77;;;;;;;;;;2073864;28;20694;-60
2021/03/15 06:12:09;;;;;;;11.80;10.33;;;;;;;;;;2088625;28;20192;-61
2021/03/15 06:13:13;;;;;;;14.43;11.03;;;;;;;;;;2073467;28;20176;-60
2021/03/15 06:14:14;;;;;;;17.30;11.50;;;;;;;;;;2074031;28;20176;-63